Airfield :
LOGIN :

Register | Disclaimer

   EN    FR    IT 

 










Legend :    VFR   Marginal VFR   IFR   Intensive IFR   Very Intensive IFR
Visi :
Ceiling :
>= 8 km
>= 3000ft
5 to 8 km
1000 to 3000 ft
1500m to 5 km
500 to 1000 ft
800 to 1500m
200 to 500 ft
< 800m
< 200 ft
Symbols :   Thunderstorms  Fog  Heavy snow  Heavy precipitations  Wind > 20 kt
SIGMETs :     Misc.  Thunderstorms  Icing  Turbulence  Mountain Waves  Volcanic Ashes







- Airport Elevation : 39 ft
- IATA code : ANR


EBAW - Anvers / Antwerpen Deurne

CURRENT METAR :
  • 222320Z AUTO 24009KT 9999 // FEW045/// 19/14 Q1014

EXPIRED METARs :
  • 222250Z AUTO 25008KT 210V280 9999 // OVC038/// 20/14 Q1014
  • 222220Z AUTO 26006KT 230V290 9999 // OVC041/// 20/15 Q1014
  • 222150Z AUTO 26008KT 240V300 9999 // OVC036/// 20/15 Q1014
  • 222120Z 29011KT 9999 FEW036 20/14 Q1013
  • 222050Z 29009KT 9999 FEW036 21/14 Q1013

TAF TAF EBAW
Valid from the 23 at 00:00 until the 23 at 09:00 UTC


222304Z 2300/2309 25006KT 9999 SCT020 BKN040
No reported NOTAMs for that airfield.



MET'MAP, your aeronautical weather chart ! - Copyright ORBIFLY December 2007 - Disclaimer

ORBIFLY MET'MAP TEAM :

Programming & Development : Alexandra Zaïnal
Concept & Development : Baudouin d'Aumeries
Co-Development & Prog : Marc-Olivier Méhu
Technical & hardware support : Manuel Goepfert

Contact : metmap@orbifly.com




SOURCES & CREDITS :

   NOAA